This is the latest recevied weather packets stored in our database for station/object HK4CL-10. If no packets are shown the sender has not sent any weather packets the latest 10 day(s).
| Time | Temp. | Humidity | Pressure | Rain* | Wind** | Luminosity | Snow |
|---|---|---|---|---|---|---|---|
| 1787616158 | 22.22° C | 51% | 819 hPa | - | - | - | - |
| 1787615257 | 22.78° C | 50% | 819 hPa | - | - | - | - |
| 1787614357 | 21.67° C | 52% | 818.7 hPa | - | - | - | - |
| 1787613457 | 22.78° C | 51% | 818.6 hPa | - | - | - | - |
| 1787612557 | 23.33° C | 52% | 818.5 hPa | - | - | - | - |
| 1787611657 | 24.44° C | 45% | 818.3 hPa | - | - | - | - |
| 1787610756 | 24.44° C | 43% | 818 hPa | - | - | - | - |
| 1787609856 | 25° C | 44% | 817.9 hPa | - | - | - | - |
| 1787608956 | 25.56° C | 45% | 817.8 hPa | - | - | - | - |
| 1787608056 | 26.11° C | 42% | 817.7 hPa | - | - | - | - |
| 1787607155 | 26.67° C | 45% | 817.5 hPa | - | - | - | - |
| 1787606255 | 26.67° C | 52% | 817.6 hPa | - | - | - | - |
| 1787605354 | 26.67° C | 50% | 817.5 hPa | - | - | - | - |
| 1787604453 | 26.67° C | 49% | 817.6 hPa | - | - | - | - |
| 1787603553 | 27.78° C | 46% | 817.7 hPa | - | - | - | - |
| 1787602653 | 29.44° C | 43% | 817.8 hPa | - | - | - | - |
| 1787601759 | 28.33° C | 46% | 817.8 hPa | - | - | - | - |
| 1787600859 | 30° C | 42% | 817.9 hPa | - | - | - | - |
| 1787599959 | 28.33° C | 44% | 817.9 hPa | - | - | - | - |
| 1787599058 | 30° C | 41% | 818.1 hPa | - | - | - | - |
| 1787598158 | 30.56° C | 40% | 818.1 hPa | - | - | - | - |
| 1787597311 | 31.11° C | 39% | 818.1 hPa | - | - | - | - |
| 1787597258 | 31.11° C | 39% | 818.1 hPa | - | - | - | - |
| 1787596358 | 31.11° C | 40% | 818.2 hPa | - | - | - | - |
| 1787595457 | 30° C | 42% | 818.4 hPa | - | - | - | - |
* Rain since midnight (hover to see other rain measurements)
** Current wind speed in m/s (hover to see current wind gust speed)